Flight Track Log - Related Links

Times and Time Zones

All times are in EDT time to prevent confusion due to time zone crossing. See the SWA1668 flight status page for this flight to view local times or setup timezone preferences in your user account.

Time Position Orientation Groundspeed Altitude Reporting Facility
EDT Latitude Longitude Course Direction KTS MPH feet Rate Location/Type
Tue 07:07:11 PM 34.9619 -106.6753 211° Southwest 205 236 8,800  Level Albuquerque Center
Tue 07:08:13 PM 34.9022 -106.6514 162° South 222 255 10,800 2,488 Climbing Albuquerque Center
Tue 07:09:14 PM 34.8483 -106.6956 214° Southwest 242 278 13,900 3,468 Climbing Albuquerque Center
Tue 07:10:02 PM 34.8428 -106.7606 264° West 268 308 17,100 2,976 Climbing Albuquerque Center
Tue 07:11:17 PM 34.8989 -106.8639 304° West 293 337 20,000 1,358 Climbing Albuquerque Center
Tue 07:12:19 PM 34.9636 -106.9500 313° West 360 414 20,200 1,366 Climbing Albuquerque Center
Tue 07:13:20 PM 35.0117 -107.0783 295° West 379 436 22,800 2,293 Climbing Albuquerque Center
Tue 07:14:22 PM 35.0286 -107.1936 280° West 394 453 24,900 2,341 Climbing Albuquerque Center
Tue 07:15:23 PM 35.0494 -107.3303 281° West 408 470 27,600 2,341 Climbing Albuquerque Center
Tue 07:16:25 PM 35.0700 -107.4631 281° West 402 463 29,700 2,098 Climbing Albuquerque Center
Tue 07:17:26 PM 35.0919 -107.5967 281° West 401 461 31,900 2,098 Climbing Albuquerque Center
Tue 07:18:28 PM 35.1164 -107.7581 281° West 394 453 34,000 1,024 Climbing Albuquerque Center
Tue 07:19:29 PM 35.1367 -107.8833 281° West 393 452 34,000  Level Albuquerque Center
Tue 07:20:31 PM 35.1561 -108.0100 281° West 395 455 34,000  Level Albuquerque Center
Tue 07:21:32 PM 35.1797 -108.1597 281° West 399 459 34,000 738 Level Albuquerque Center
Tue 07:22:33 PM 35.1969 -108.2875 279° West 398 458 35,500 1,659 Climbing Albuquerque Center
Tue 07:23:35 PM 35.2197 -108.4331 281° West 392 451 37,400 1,415 Climbing Albuquerque Center
Tue 07:24:36 PM 35.2397 -108.5578 281° West 390 449 38,400 1,024 Climbing Albuquerque Center
Tue 07:25:38 PM 35.2581 -108.6858 280° West 395 455 39,500 780 Climbing Albuquerque Center
Tue 07:26:39 PM 35.2800 -108.8347 280° West 397 457 40,000 244 Climbing Albuquerque Center
Tue 07:27:41 PM 35.2986 -108.9622 280° West 397 457 40,000  Level Albuquerque Center
Tue 07:28:42 PM 35.3164 -109.0900 280° West 397 457 40,000  Level Albuquerque Center
Tue 07:29:43 PM 35.3378 -109.2406 280° West 399 459 40,000  Level Albuquerque Center
Tue 07:30:45 PM 35.3567 -109.3675 280° West 397 457 40,000  Level Albuquerque Center
Tue 07:31:46 PM 35.3767 -109.5153 279° West 394 453 40,000  Level Albuquerque Center
Tue 07:32:48 PM 35.3931 -109.6369 279° West 385 443 40,000  Level Albuquerque Center
Tue 07:33:49 PM 35.4097 -109.7603 279° West 382 440 40,000  Level Albuquerque Center
Tue 07:34:50 PM 35.4289 -109.9078 279° West 390 449 40,000  Level Albuquerque Center
Tue 07:35:52 PM 35.4442 -110.0344 278° West 391 450 40,000  Level Albuquerque Center
Tue 07:36:53 PM 35.4639 -110.1822 279° West 391 450 40,000  Level Albuquerque Center
Tue 07:37:55 PM 35.4806 -110.3106 279° West 396 456 40,000  Level Albuquerque Center
Tue 07:38:56 PM 35.4969 -110.4414 279° West 401 461 40,000  Level Albuquerque Center
Tue 07:39:58 PM 35.5175 -110.5922 280° West 402 463 40,000  Level Albuquerque Center
Tue 07:40:59 PM 35.5347 -110.7211 279° West 400 460 40,000  Level Albuquerque Center
Tue 07:42:01 PM 35.5533 -110.8725 279° West 402 463 40,000  Level Albuquerque Center
Tue 07:43:02 PM 35.5700 -111.0022 279° West 402 463 40,000  Level Albuquerque Center
Tue 07:44:04 PM 35.5869 -111.1347 279° West 407 468 40,000  Level Albuquerque Center
Tue 07:45:05 PM 35.6089 -111.2906 280° West 412 474 40,000  Level Albuquerque Center
Tue 07:46:07 PM 35.6253 -111.4339 278° West 408 470 40,000  Level Albuquerque Center
Tue 07:47:08 PM 35.6394 -111.5531 278° West 416 479 40,000  Level Albuquerque Center
Tue 07:48:10 PM 35.6600 -111.7214 279° West 419 482 40,000  Level Albuquerque Center
Tue 07:48:29 PM 35.6633 -111.7494 278° West 420 483 40,000  Level Los Angeles Center
Tue 07:49:31 PM 35.6789 -111.8883 278° West 413 475 40,000  Level Los Angeles Center
Tue 07:50:32 PM 35.6994 -112.0511 279° West 404 465 40,000  Level Los Angeles Center
Tue 07:51:34 PM 35.7144 -112.1875 278° West 404 465 40,000  Level Los Angeles Center
Tue 07:52:48 PM 35.7308 -112.3242 278° West 407 468 40,000  Level Los Angeles Center
Tue 07:53:51 PM 35.7500 -112.4903 278° West 409 471 40,000  Level Los Angeles Center
Tue 07:54:53 PM 35.7661 -112.6283 278° West 412 474 40,000  Level Los Angeles Center
Tue 07:55:55 PM 35.7836 -112.7936 277° West 411 473 40,000  Level Los Angeles Center
Tue 07:56:57 PM 35.7994 -112.9319 278° West 413 475 40,000  Level Los Angeles Center
Tue 07:57:59 PM 35.8153 -113.0689 278° West 412 474 40,000  Level Los Angeles Center
Tue 07:59:01 PM 35.8297 -113.2078 277° West 414 476 40,000  Level Los Angeles Center
Tue 08:00:03 PM 35.8458 -113.3475 278° West 416 479 40,000  Level Los Angeles Center
Tue 08:01:05 PM 35.8628 -113.5147 277° West 415 478 40,000  Level Los Angeles Center
Tue 08:02:07 PM 35.8789 -113.6636 278° West 411 473 40,000  Level Los Angeles Center
Tue 08:03:21 PM 35.8933 -113.8031 277° West 410 472 40,000  Level Los Angeles Center
Tue 08:04:23 PM 35.9092 -113.9694 277° West 408 470 40,000  Level Los Angeles Center
Tue 08:05:25 PM 35.9233 -114.1081 277° West 407 468 40,000  Level Los Angeles Center
Tue 08:06:27 PM 35.9375 -114.2467 277° West 408 470 40,000  Level Los Angeles Center
Tue 08:07:29 PM 35.9506 -114.3836 277° West 403 464 40,000  Level Los Angeles Center
Tue 08:08:31 PM 35.9664 -114.5497 277° West 406 467 40,000  Level Los Angeles Center
Tue 08:09:33 PM 35.9803 -114.6906 277° West 412 474 40,000  Level Los Angeles Center
Tue 08:10:35 PM 35.9933 -114.8331 277° West 416 479 40,000  Level Los Angeles Center
Tue 08:11:37 PM 36.0406 -114.9650 294° West 426 490 40,000  Level Los Angeles Center
Tue 08:12:39 PM 36.0969 -115.0931 299° West 424 488 40,000  Level Los Angeles Center
Tue 08:13:41 PM 36.1531 -115.2203 299° West 423 487 40,000  Level Los Angeles Center
Tue 08:14:43 PM 36.2206 -115.3756 298° West 425 489 40,000  Level Los Angeles Center
Tue 08:15:45 PM 36.2758 -115.5050 298° West 424 488 40,000  Level Los Angeles Center
Tue 08:16:47 PM 36.3297 -115.6303 298° West 433 498 40,000  Level Los Angeles Center
Tue 08:17:49 PM 36.3944 -115.7828 298° West 434 499 40,000  Level Los Angeles Center
Tue 08:18:52 PM 36.4497 -115.9103 298° West 429 494 40,000  Level Los Angeles Center
Tue 08:19:54 PM 36.5058 -116.0414 298° West 430 495 40,000  Level Los Angeles Center
Tue 08:20:56 PM 36.5619 -116.1744 298° West 433 498 40,000  Level Los Angeles Center
Tue 08:22:10 PM 36.6169 -116.3064 297° West 430 495 40,000  Level Los Angeles Center
Tue 08:23:12 PM 36.6844 -116.4667 298° West 434 499 40,000  Level Los Angeles Center
Tue 08:24:14 PM 36.7511 -116.6256 298° West 431 496 40,000  Level Los Angeles Center
Tue 08:25:16 PM 36.8139 -116.7531 302° West 435 501 40,000  Level Los Angeles Center
Tue 08:26:18 PM 36.9131 -116.8400 325° Northwest 437 503 40,000  Level Los Angeles Center
Tue 08:27:20 PM 37.0136 -116.9250 326° Northwest 436 502 40,000  Level Los Angeles Center
Tue 08:27:35 PM 37.0331 -116.9419 325° Northwest 436 502 40,000  Level Oakland Center
Tue 08:28:36 PM 37.1344 -117.0289 326° Northwest 440 506 40,000  Level Oakland Center
Tue 08:29:24 PM 37.2164 -117.0958 327° Northwest 439 505 40,000  Level Los Angeles Center
Tue 08:30:26 PM 37.2967 -117.2386 305° West 442 509 40,000  Level Los Angeles Center
Tue 08:31:40 PM 37.3308 -117.4172 284° West 438 504 40,000  Level Oakland Center
Tue 08:32:41 PM 37.3567 -117.5661 282° West 436 502 40,000  Level Oakland Center
Tue 08:33:42 PM 37.3842 -117.7150 283° West 435 501 40,000  Level Oakland Center
Tue 08:34:43 PM 37.4094 -117.8622 282° West 432 497 40,000  Level Oakland Center
Tue 08:35:45 PM 37.4350 -118.0094 282° West 431 496 40,000  Level Oakland Center
Tue 08:36:46 PM 37.4611 -118.1583 283° West 434 499 40,000  Level Oakland Center
Tue 08:37:47 PM 37.4864 -118.3072 282° West 434 499 40,000  Level Oakland Center
Tue 08:38:48 PM 37.5117 -118.4564 282° West 434 499 40,000  Level Oakland Center
Tue 08:39:49 PM 37.5372 -118.6047 282° West 433 498 40,000  Level Oakland Center
Tue 08:40:50 PM 37.5614 -118.7528 282° West 431 496 40,000  Level Oakland Center
Tue 08:41:52 PM 37.5881 -118.9103 282° West 434 499 40,000  Level Oakland Center
Tue 08:42:53 PM 37.6136 -119.0689 282° West 429 494 40,000  Level Oakland Center
Tue 08:43:54 PM 37.6378 -119.2181 282° West 433 498 40,000  Level Oakland Center
Tue 08:44:55 PM 37.6625 -119.3681 282° West 435 501 40,000 -344 Level Oakland Center
Tue 08:45:56 PM 37.6869 -119.5156 282° West 431 496 39,300 -836 Descending Oakland Center
Tue 08:46:57 PM 37.7106 -119.6603 282° West 424 488 38,300 -1,082 Descending Oakland Center
Tue 08:47:58 PM 37.7233 -119.8083 276° West 422 486 37,100 -1,967 Descending Oakland Center
Tue 08:48:59 PM 37.7328 -119.9575 275° West 424 488 34,300 -3,122 Descending Oakland Center
Tue 08:50:01 PM 37.7472 -120.1058 277° West 425 489 30,700 -2,878 Descending Oakland Center
Tue 08:51:02 PM 37.7597 -120.2600 276° West 434 499 28,400 -2,262 Descending Oakland Center
Tue 08:52:03 PM 37.7722 -120.4081 276° West 428 493 26,100 -2,410 Descending Oakland Center
Tue 08:53:04 PM 37.7858 -120.5764 276° West 407 468 23,500 -2,155 Descending Oakland Center
Tue 08:53:46 PM 37.8000 -120.6667 281° West 380 437 22,400 -1,294 Descending Northern Cal TRACON
Tue 08:54:46 PM 37.8000 -120.8000 270° West 361 415 21,300 -1,474 Descending Northern Cal TRACON
Tue 08:55:40 PM 37.8167 -120.9000 282° West 351 404 19,600 -2,053 Descending Northern Cal TRACON
Tue 08:56:40 PM 37.8000 -121.0333 261° West 364 419 17,400 -2,200 Descending Northern Cal TRACON
Tue 08:57:40 PM 37.7667 -121.1500 250° West 365 420 15,200 -2,050 Descending Northern Cal TRACON
Tue 08:58:40 PM 37.7500 -121.2667 260° West 352 405 13,300 -1,850 Descending Northern Cal TRACON
Tue 08:59:40 PM 37.7167 -121.3667 247° West 326 375 11,500 -1,684 Descending Northern Cal TRACON
Tue 09:00:34 PM 37.7000 -121.4667 258° West 315 362 10,100 -1,150 Descending Northern Cal TRACON
Tue 09:01:40 PM 37.6667 -121.5667 247° West 277 319 9,200 -950 Descending Northern Cal TRACON
Tue 09:02:34 PM 37.6500 -121.6667 258° West 270 311 8,200 -895 Descending Northern Cal TRACON
Tue 09:03:34 PM 37.6333 -121.7500 256° West 248 285 7,500 -714 Descending Northern Cal TRACON
Tue 09:04:40 PM 37.6167 -121.8333 256° West 229 264 6,700 -900 Descending Northern Cal TRACON
Tue 09:05:34 PM 37.6000 -121.9000 253° West 227 261 5,700 -1,043 Descending Northern Cal TRACON
Tue 09:06:35 PM 37.5833 -121.9833 256° West 225 259 4,700 -939 Descending Northern Cal TRACON
Tue 09:07:29 PM 37.6000 -122.0500 288° West 210 242 3,900 -1,053 Descending Northern Cal TRACON
Tue 09:08:29 PM 37.6167 -122.1000 293° West 174 200 2,700 -1,168 Descending Northern Cal TRACON
Tue 09:09:22 PM 37.6478 -122.1328 320° Northwest 178 205 1,700 -887 Descending Oakland Center
Tue 09:10:24 PM 37.6719 -122.1703 309° West 156 180 1,000 -683 Descending Oakland Center
Tue 09:11:25 PM 37.6942 -122.2025 311° West 138 159 300 -689 Descending Oakland Center
Tue 09:14:00 PM 37.7167 -122.2167 270° West  Level FlightAware Approximate

Login

Don't have an account? Register now (free) for customized features, flight alerts, and more!